Little Fort, Canada
Current Conditions -  °F | °C
As of 8:00 AM on Wednesday 28 Jan 2015 (Local Time) from CYKA Reporting Station
Drizzle Drizzle  
Wind Chill: -1°   Ceiling: 700
Heat Index:   Visibility: 6mi
Dew Point: -1°   Wind: 5mph
Humidity: 87%   Direction: 270°W
Pressure: 30.4"   Gusts: NA
Location:  51.43°N, 120.2°W
Report Text: CYKA 281600Z 27004KT 6SM -DZ BR OVC007 01/M01 A3040 RMK ST8 SLP312
Loading
Personal Weather Stations






























Interactive Weather Map New forecast layout! Learn more

10-Day Weather Forecast

Advertisements
Track Severe Weather on mobile